sensor_id;sensor_type;location;lat;lon;timestamp;P1;durP1;ratioP1;P2;durP2;ratioP2
75739;SDS011;64357;51.344;6.550;2023-06-10T00:00:11;11.30;;;4.60;;
75739;SDS011;64357;51.344;6.550;2023-06-10T00:02:40;10.95;;;4.90;;
75739;SDS011;64357;51.344;6.550;2023-06-10T00:05:06;15.95;;;4.70;;
75739;SDS011;64357;51.344;6.550;2023-06-10T00:07:35;8.43;;;4.43;;
75739;SDS011;64357;51.344;6.550;2023-06-10T00:10:06;10.82;;;4.85;;
75739;SDS011;64357;51.344;6.550;2023-06-10T00:12:32;10.25;;;4.60;;
75739;SDS011;64357;51.344;6.550;2023-06-10T00:15:02;11.07;;;5.40;;
75739;SDS011;64357;51.344;6.550;2023-06-10T00:17:29;10.23;;;4.60;;
75739;SDS011;64357;51.344;6.550;2023-06-10T00:19:55;10.00;;;4.80;;
75739;SDS011;64357;51.344;6.550;2023-06-10T00:22:23;9.45;;;4.32;;
75739;SDS011;64357;51.344;6.550;2023-06-10T00:24:54;10.25;;;4.68;;
75739;SDS011;64357;51.344;6.550;2023-06-10T00:27:21;10.05;;;4.55;;
75739;SDS011;64357;51.344;6.550;2023-06-10T00:29:47;11.45;;;4.43;;
75739;SDS011;64357;51.344;6.550;2023-06-10T00:32:12;8.52;;;4.30;;
75739;SDS011;64357;51.344;6.550;2023-06-10T00:34:40;9.32;;;4.60;;
75739;SDS011;64357;51.344;6.550;2023-06-10T00:37:07;10.40;;;4.60;;
75739;SDS011;64357;51.344;6.550;2023-06-10T00:39:33;10.57;;;4.37;;
75739;SDS011;64357;51.344;6.550;2023-06-10T00:42:01;9.33;;;4.43;;
75739;SDS011;64357;51.344;6.550;2023-06-10T00:44:26;12.52;;;5.55;;
75739;SDS011;64357;51.344;6.550;2023-06-10T00:46:52;8.63;;;4.55;;
75739;SDS011;64357;51.344;6.550;2023-06-10T00:49:20;10.52;;;4.65;;
75739;SDS011;64357;51.344;6.550;2023-06-10T00:51:48;8.65;;;4.55;;
75739;SDS011;64357;51.344;6.550;2023-06-10T00:54:18;8.77;;;4.15;;
75739;SDS011;64357;51.344;6.550;2023-06-10T00:56:46;11.75;;;5.65;;
75739;SDS011;64357;51.344;6.550;2023-06-10T00:59:14;10.55;;;5.15;;
75739;SDS011;64357;51.344;6.550;2023-06-10T01:01:43;8.95;;;4.93;;
75739;SDS011;64357;51.344;6.550;2023-06-10T01:04:13;9.88;;;5.00;;
75739;SDS011;64357;51.344;6.550;2023-06-10T01:09:42;10.82;;;4.80;;
75739;SDS011;64357;51.344;6.550;2023-06-10T01:12:19;8.88;;;4.70;;
75739;SDS011;64357;51.344;6.550;2023-06-10T01:14:54;9.77;;;4.75;;
75739;SDS011;64357;51.344;6.550;2023-06-10T01:17:37;9.52;;;4.03;;
75739;SDS011;64357;51.344;6.550;2023-06-10T01:20:21;11.60;;;4.93;;
75739;SDS011;64357;51.344;6.550;2023-06-10T01:22:46;9.27;;;4.53;;
75739;SDS011;64357;51.344;6.550;2023-06-10T01:25:12;9.52;;;4.55;;
75739;SDS011;64357;51.344;6.550;2023-06-10T01:27:38;9.18;;;4.90;;
75739;SDS011;64357;51.344;6.550;2023-06-10T01:30:08;10.32;;;4.50;;
75739;SDS011;64357;51.344;6.550;2023-06-10T01:32:43;10.70;;;4.78;;
75739;SDS011;64357;51.344;6.550;2023-06-10T01:35:13;9.45;;;4.90;;
75739;SDS011;64357;51.344;6.550;2023-06-10T01:37:45;9.27;;;5.00;;
75739;SDS011;64357;51.344;6.550;2023-06-10T01:40:11;9.50;;;4.25;;
75739;SDS011;64357;51.344;6.550;2023-06-10T01:42:38;8.23;;;4.32;;
75739;SDS011;64357;51.344;6.550;2023-06-10T01:45:07;8.50;;;4.35;;
75739;SDS011;64357;51.344;6.550;2023-06-10T01:47:38;8.93;;;4.80;;
75739;SDS011;64357;51.344;6.550;2023-06-10T01:50:03;8.73;;;4.93;;
75739;SDS011;64357;51.344;6.550;2023-06-10T01:52:32;9.38;;;4.60;;
75739;SDS011;64357;51.344;6.550;2023-06-10T01:54:57;9.32;;;4.47;;
75739;SDS011;64357;51.344;6.550;2023-06-10T01:57:23;9.68;;;4.90;;
75739;SDS011;64357;51.344;6.550;2023-06-10T01:59:54;8.35;;;4.78;;
75739;SDS011;64357;51.344;6.550;2023-06-10T02:02:22;8.75;;;4.88;;
75739;SDS011;64357;51.344;6.550;2023-06-10T02:04:47;11.05;;;4.80;;
75739;SDS011;64357;51.344;6.550;2023-06-10T02:07:33;9.00;;;5.10;;
75739;SDS011;64357;51.344;6.550;2023-06-10T02:10:00;10.27;;;4.95;;
75739;SDS011;64357;51.344;6.550;2023-06-10T02:12:26;9.30;;;4.82;;
75739;SDS011;64357;51.344;6.550;2023-06-10T02:15:01;9.82;;;4.55;;
75739;SDS011;64357;51.344;6.550;2023-06-10T02:17:27;10.15;;;5.07;;
75739;SDS011;64357;51.344;6.550;2023-06-10T02:19:53;8.25;;;4.70;;
75739;SDS011;64357;51.344;6.550;2023-06-10T02:22:22;7.97;;;4.50;;
75739;SDS011;64357;51.344;6.550;2023-06-10T02:24:48;9.60;;;4.82;;
75739;SDS011;64357;51.344;6.550;2023-06-10T02:27:14;9.75;;;4.95;;
75739;SDS011;64357;51.344;6.550;2023-06-10T02:29:45;9.57;;;4.63;;
75739;SDS011;64357;51.344;6.550;2023-06-10T02:32:11;8.15;;;4.60;;
75739;SDS011;64357;51.344;6.550;2023-06-10T02:34:36;9.17;;;4.37;;
75739;SDS011;64357;51.344;6.550;2023-06-10T02:37:01;9.40;;;4.70;;
75739;SDS011;64357;51.344;6.550;2023-06-10T02:39:30;8.63;;;4.45;;
75739;SDS011;64357;51.344;6.550;2023-06-10T02:41:55;12.10;;;4.95;;
75739;SDS011;64357;51.344;6.550;2023-06-10T02:44:20;9.18;;;5.13;;
75739;SDS011;64357;51.344;6.550;2023-06-10T02:46:46;9.17;;;4.90;;
75739;SDS011;64357;51.344;6.550;2023-06-10T02:49:11;10.80;;;5.82;;
75739;SDS011;64357;51.344;6.550;2023-06-10T02:51:37;8.35;;;4.53;;
75739;SDS011;64357;51.344;6.550;2023-06-10T02:54:03;9.65;;;4.85;;
75739;SDS011;64357;51.344;6.550;2023-06-10T02:56:29;9.25;;;4.93;;
75739;SDS011;64357;51.344;6.550;2023-06-10T02:58:55;9.20;;;5.00;;
75739;SDS011;64357;51.344;6.550;2023-06-10T03:01:21;9.43;;;5.13;;
75739;SDS011;64357;51.344;6.550;2023-06-10T03:03:46;10.70;;;5.20;;
75739;SDS011;64357;51.344;6.550;2023-06-10T03:06:15;9.73;;;5.03;;
75739;SDS011;64357;51.344;6.550;2023-06-10T03:08:41;9.20;;;5.03;;
75739;SDS011;64357;51.344;6.550;2023-06-10T03:11:06;8.75;;;4.85;;
75739;SDS011;64357;51.344;6.550;2023-06-10T03:13:32;11.90;;;5.30;;
75739;SDS011;64357;51.344;6.550;2023-06-10T03:16:00;10.52;;;5.45;;
75739;SDS011;64357;51.344;6.550;2023-06-10T03:18:30;10.20;;;5.32;;
75739;SDS011;64357;51.344;6.550;2023-06-10T03:20:55;9.00;;;4.88;;
75739;SDS011;64357;51.344;6.550;2023-06-10T03:23:22;9.82;;;5.60;;
75739;SDS011;64357;51.344;6.550;2023-06-10T03:25:52;10.50;;;5.10;;
75739;SDS011;64357;51.344;6.550;2023-06-10T03:28:19;10.35;;;5.70;;
75739;SDS011;64357;51.344;6.550;2023-06-10T03:30:48;10.63;;;5.35;;
75739;SDS011;64357;51.344;6.550;2023-06-10T03:33:13;11.10;;;5.47;;
75739;SDS011;64357;51.344;6.550;2023-06-10T03:35:39;11.25;;;5.25;;
75739;SDS011;64357;51.344;6.550;2023-06-10T03:38:10;11.93;;;5.63;;
75739;SDS011;64357;51.344;6.550;2023-06-10T03:40:35;10.85;;;5.93;;
75739;SDS011;64357;51.344;6.550;2023-06-10T03:43:06;13.15;;;6.47;;
75739;SDS011;64357;51.344;6.550;2023-06-10T03:45:31;8.70;;;4.63;;
75739;SDS011;64357;51.344;6.550;2023-06-10T03:47:57;10.82;;;5.68;;
75739;SDS011;64357;51.344;6.550;2023-06-10T03:50:23;10.40;;;5.57;;
75739;SDS011;64357;51.344;6.550;2023-06-10T03:52:49;9.07;;;5.57;;
75739;SDS011;64357;51.344;6.550;2023-06-10T03:55:15;10.18;;;5.63;;
75739;SDS011;64357;51.344;6.550;2023-06-10T03:57:41;11.95;;;5.75;;
75739;SDS011;64357;51.344;6.550;2023-06-10T04:00:07;10.55;;;5.60;;
75739;SDS011;64357;51.344;6.550;2023-06-10T04:02:36;10.73;;;5.95;;
75739;SDS011;64357;51.344;6.550;2023-06-10T04:05:02;10.40;;;5.53;;
75739;SDS011;64357;51.344;6.550;2023-06-10T04:07:28;12.38;;;6.00;;
75739;SDS011;64357;51.344;6.550;2023-06-10T04:09:53;10.30;;;5.82;;
75739;SDS011;64357;51.344;6.550;2023-06-10T04:12:19;10.38;;;5.88;;
75739;SDS011;64357;51.344;6.550;2023-06-10T04:14:44;11.35;;;6.03;;
75739;SDS011;64357;51.344;6.550;2023-06-10T04:17:11;11.07;;;5.88;;
75739;SDS011;64357;51.344;6.550;2023-06-10T04:19:37;10.77;;;5.50;;
75739;SDS011;64357;51.344;6.550;2023-06-10T04:22:02;11.25;;;5.75;;
75739;SDS011;64357;51.344;6.550;2023-06-10T04:24:28;10.32;;;5.40;;
75739;SDS011;64357;51.344;6.550;2023-06-10T04:26:54;12.80;;;5.77;;
75739;SDS011;64357;51.344;6.550;2023-06-10T04:29:19;10.90;;;6.03;;
75739;SDS011;64357;51.344;6.550;2023-06-10T04:31:44;10.77;;;5.50;;
75739;SDS011;64357;51.344;6.550;2023-06-10T04:34:12;11.27;;;5.72;;
75739;SDS011;64357;51.344;6.550;2023-06-10T04:36:38;12.20;;;6.30;;
75739;SDS011;64357;51.344;6.550;2023-06-10T04:39:06;12.13;;;6.00;;
75739;SDS011;64357;51.344;6.550;2023-06-10T04:41:31;10.45;;;5.78;;
75739;SDS011;64357;51.344;6.550;2023-06-10T04:43:57;10.20;;;5.40;;
75739;SDS011;64357;51.344;6.550;2023-06-10T04:46:22;11.75;;;6.35;;
75739;SDS011;64357;51.344;6.550;2023-06-10T04:48:48;11.07;;;6.15;;
75739;SDS011;64357;51.344;6.550;2023-06-10T04:51:16;12.82;;;6.07;;
75739;SDS011;64357;51.344;6.550;2023-06-10T04:53:41;12.43;;;6.78;;
75739;SDS011;64357;51.344;6.550;2023-06-10T04:56:10;11.13;;;6.28;;
75739;SDS011;64357;51.344;6.550;2023-06-10T04:58:35;11.93;;;6.57;;
75739;SDS011;64357;51.344;6.550;2023-06-10T05:01:00;10.77;;;6.40;;
75739;SDS011;64357;51.344;6.550;2023-06-10T05:03:29;12.35;;;6.20;;
75739;SDS011;64357;51.344;6.550;2023-06-10T05:05:54;11.60;;;6.07;;
75739;SDS011;64357;51.344;6.550;2023-06-10T05:08:24;10.70;;;6.03;;
75739;SDS011;64357;51.344;6.550;2023-06-10T05:10:49;12.13;;;6.30;;
75739;SDS011;64357;51.344;6.550;2023-06-10T05:13:16;13.10;;;6.57;;
75739;SDS011;64357;51.344;6.550;2023-06-10T05:15:42;11.38;;;5.70;;
75739;SDS011;64357;51.344;6.550;2023-06-10T05:18:09;11.15;;;6.40;;
75739;SDS011;64357;51.344;6.550;2023-06-10T05:20:41;10.70;;;6.00;;
75739;SDS011;64357;51.344;6.550;2023-06-10T05:23:07;11.07;;;6.50;;
75739;SDS011;64357;51.344;6.550;2023-06-10T05:25:32;16.38;;;6.75;;
75739;SDS011;64357;51.344;6.550;2023-06-10T05:27:58;12.43;;;6.28;;
75739;SDS011;64357;51.344;6.550;2023-06-10T05:30:23;11.80;;;6.30;;
75739;SDS011;64357;51.344;6.550;2023-06-10T05:32:52;11.55;;;5.90;;
75739;SDS011;64357;51.344;6.550;2023-06-10T05:35:18;11.35;;;6.60;;
75739;SDS011;64357;51.344;6.550;2023-06-10T05:37:43;13.20;;;6.70;;
75739;SDS011;64357;51.344;6.550;2023-06-10T05:40:09;12.23;;;6.45;;
75739;SDS011;64357;51.344;6.550;2023-06-10T05:42:35;10.20;;;5.75;;
75739;SDS011;64357;51.344;6.550;2023-06-10T05:45:01;11.13;;;5.80;;
75739;SDS011;64357;51.344;6.550;2023-06-10T05:49:59;12.83;;;6.50;;
75739;SDS011;64357;51.344;6.550;2023-06-10T05:52:32;12.32;;;6.88;;
75739;SDS011;64357;51.344;6.550;2023-06-10T05:55:05;9.95;;;6.50;;
75739;SDS011;64357;51.344;6.550;2023-06-10T05:57:31;12.48;;;5.90;;
75739;SDS011;64357;51.344;6.550;2023-06-10T05:59:59;11.25;;;6.18;;
75739;SDS011;64357;51.344;6.550;2023-06-10T06:02:24;12.52;;;6.80;;
75739;SDS011;64357;51.344;6.550;2023-06-10T06:04:52;12.80;;;6.57;;
75739;SDS011;64357;51.344;6.550;2023-06-10T06:07:18;12.33;;;6.63;;
75739;SDS011;64357;51.344;6.550;2023-06-10T06:09:45;13.60;;;6.18;;
75739;SDS011;64357;51.344;6.550;2023-06-10T06:12:11;13.35;;;6.50;;
75739;SDS011;64357;51.344;6.550;2023-06-10T06:14:39;12.10;;;6.53;;
75739;SDS011;64357;51.344;6.550;2023-06-10T06:17:15;10.40;;;6.03;;
75739;SDS011;64357;51.344;6.550;2023-06-10T06:19:40;15.00;;;6.68;;
75739;SDS011;64357;51.344;6.550;2023-06-10T06:22:24;11.40;;;6.03;;
75739;SDS011;64357;51.344;6.550;2023-06-10T06:24:49;13.40;;;6.25;;
75739;SDS011;64357;51.344;6.550;2023-06-10T06:27:15;12.23;;;6.22;;
75739;SDS011;64357;51.344;6.550;2023-06-10T06:29:40;10.48;;;5.82;;
75739;SDS011;64357;51.344;6.550;2023-06-10T06:32:06;11.70;;;6.03;;
75739;SDS011;64357;51.344;6.550;2023-06-10T06:34:32;10.73;;;5.35;;
75739;SDS011;64357;51.344;6.550;2023-06-10T06:37:00;14.05;;;6.60;;
75739;SDS011;64357;51.344;6.550;2023-06-10T06:39:25;12.75;;;6.05;;
75739;SDS011;64357;51.344;6.550;2023-06-10T06:41:53;14.70;;;6.47;;
75739;SDS011;64357;51.344;6.550;2023-06-10T06:44:18;12.73;;;6.13;;
75739;SDS011;64357;51.344;6.550;2023-06-10T06:46:43;10.70;;;5.90;;
75739;SDS011;64357;51.344;6.550;2023-06-10T06:49:09;15.18;;;6.35;;
75739;SDS011;64357;51.344;6.550;2023-06-10T06:51:42;9.88;;;5.38;;
75739;SDS011;64357;51.344;6.550;2023-06-10T06:54:16;11.05;;;5.82;;
75739;SDS011;64357;51.344;6.550;2023-06-10T06:57:01;13.05;;;5.78;;
75739;SDS011;64357;51.344;6.550;2023-06-10T06:59:27;12.30;;;5.38;;
75739;SDS011;64357;51.344;6.550;2023-06-10T07:01:52;11.55;;;5.30;;
75739;SDS011;64357;51.344;6.550;2023-06-10T07:04:19;14.65;;;6.95;;
75739;SDS011;64357;51.344;6.550;2023-06-10T07:06:46;10.55;;;5.47;;
75739;SDS011;64357;51.344;6.550;2023-06-10T07:09:14;12.35;;;5.70;;
75739;SDS011;64357;51.344;6.550;2023-06-10T07:11:40;10.32;;;5.18;;
75739;SDS011;64357;51.344;6.550;2023-06-10T07:14:10;9.85;;;5.40;;
75739;SDS011;64357;51.344;6.550;2023-06-10T07:16:35;11.05;;;5.93;;
75739;SDS011;64357;51.344;6.550;2023-06-10T07:19:03;11.80;;;6.05;;
75739;SDS011;64357;51.344;6.550;2023-06-10T07:21:31;10.18;;;6.18;;
75739;SDS011;64357;51.344;6.550;2023-06-10T07:24:00;11.02;;;5.55;;
75739;SDS011;64357;51.344;6.550;2023-06-10T07:26:27;9.57;;;5.88;;
75739;SDS011;64357;51.344;6.550;2023-06-10T07:28:55;9.03;;;5.50;;
75739;SDS011;64357;51.344;6.550;2023-06-10T07:31:21;11.40;;;5.93;;
75739;SDS011;64357;51.344;6.550;2023-06-10T07:33:51;10.95;;;4.90;;
75739;SDS011;64357;51.344;6.550;2023-06-10T07:36:19;10.93;;;6.00;;
75739;SDS011;64357;51.344;6.550;2023-06-10T07:38:45;10.10;;;5.50;;
75739;SDS011;64357;51.344;6.550;2023-06-10T07:41:13;10.45;;;5.70;;
75739;SDS011;64357;51.344;6.550;2023-06-10T07:43:39;9.57;;;5.65;;
75739;SDS011;64357;51.344;6.550;2023-06-10T07:46:11;12.98;;;7.47;;
75739;SDS011;64357;51.344;6.550;2023-06-10T07:49:02;10.82;;;6.25;;
75739;SDS011;64357;51.344;6.550;2023-06-10T07:51:50;9.38;;;5.25;;
75739;SDS011;64357;51.344;6.550;2023-06-10T07:54:23;10.15;;;5.18;;
75739;SDS011;64357;51.344;6.550;2023-06-10T07:57:00;8.32;;;5.18;;
75739;SDS011;64357;51.344;6.550;2023-06-10T07:59:40;10.40;;;5.53;;
75739;SDS011;64357;51.344;6.550;2023-06-10T08:02:09;11.60;;;5.65;;
75739;SDS011;64357;51.344;6.550;2023-06-10T08:04:35;9.68;;;5.40;;
75739;SDS011;64357;51.344;6.550;2023-06-10T08:07:05;9.63;;;5.95;;
75739;SDS011;64357;51.344;6.550;2023-06-10T08:09:34;12.63;;;5.60;;
75739;SDS011;64357;51.344;6.550;2023-06-10T08:12:12;9.90;;;6.20;;
75739;SDS011;64357;51.344;6.550;2023-06-10T08:14:44;9.55;;;5.50;;
75739;SDS011;64357;51.344;6.550;2023-06-10T08:17:17;10.25;;;5.22;;
75739;SDS011;64357;51.344;6.550;2023-06-10T08:19:48;9.88;;;6.05;;
75739;SDS011;64357;51.344;6.550;2023-06-10T08:22:17;9.82;;;5.78;;
75739;SDS011;64357;51.344;6.550;2023-06-10T08:24:45;9.27;;;5.32;;
75739;SDS011;64357;51.344;6.550;2023-06-10T08:27:10;11.77;;;5.53;;
75739;SDS011;64357;51.344;6.550;2023-06-10T08:29:36;11.07;;;6.03;;
75739;SDS011;64357;51.344;6.550;2023-06-10T08:32:07;8.40;;;5.35;;
75739;SDS011;64357;51.344;6.550;2023-06-10T08:34:33;12.05;;;5.45;;
75739;SDS011;64357;51.344;6.550;2023-06-10T08:37:00;10.85;;;5.47;;
75739;SDS011;64357;51.344;6.550;2023-06-10T08:39:31;10.13;;;5.47;;
75739;SDS011;64357;51.344;6.550;2023-06-10T08:44:32;12.85;;;8.75;;
75739;SDS011;64357;51.344;6.550;2023-06-10T08:47:00;10.35;;;5.65;;
75739;SDS011;64357;51.344;6.550;2023-06-10T08:50:02;9.50;;;5.45;;
75739;SDS011;64357;51.344;6.550;2023-06-10T08:52:40;9.70;;;5.40;;
75739;SDS011;64357;51.344;6.550;2023-06-10T08:58:17;10.13;;;5.40;;
75739;SDS011;64357;51.344;6.550;2023-06-10T09:00:44;9.35;;;5.32;;
75739;SDS011;64357;51.344;6.550;2023-06-10T09:03:12;10.57;;;5.13;;
75739;SDS011;64357;51.344;6.550;2023-06-10T09:05:38;8.27;;;5.22;;
75739;SDS011;64357;51.344;6.550;2023-06-10T09:08:05;9.05;;;5.70;;
75739;SDS011;64357;51.344;6.550;2023-06-10T09:10:32;10.75;;;6.10;;
75739;SDS011;64357;51.344;6.550;2023-06-10T09:12:58;10.38;;;5.82;;
75739;SDS011;64357;51.344;6.550;2023-06-10T09:15:32;9.10;;;5.05;;
75739;SDS011;64357;51.344;6.550;2023-06-10T09:17:58;10.25;;;5.88;;
75739;SDS011;64357;51.344;6.550;2023-06-10T09:20:25;10.10;;;5.90;;
75739;SDS011;64357;51.344;6.550;2023-06-10T09:22:53;8.90;;;5.30;;
75739;SDS011;64357;51.344;6.550;2023-06-10T09:25:38;9.63;;;5.65;;
75739;SDS011;64357;51.344;6.550;2023-06-10T09:28:04;10.68;;;5.75;;
75739;SDS011;64357;51.344;6.550;2023-06-10T09:30:41;10.02;;;5.45;;
75739;SDS011;64357;51.344;6.550;2023-06-10T09:33:12;10.20;;;5.82;;
75739;SDS011;64357;51.344;6.550;2023-06-10T09:35:45;9.43;;;5.82;;
75739;SDS011;64357;51.344;6.550;2023-06-10T09:38:42;11.60;;;6.78;;
75739;SDS011;64357;51.344;6.550;2023-06-10T09:41:31;12.05;;;5.95;;
75739;SDS011;64357;51.344;6.550;2023-06-10T09:44:00;11.32;;;6.60;;
75739;SDS011;64357;51.344;6.550;2023-06-10T09:46:44;10.38;;;5.68;;
75739;SDS011;64357;51.344;6.550;2023-06-10T09:49:18;7.88;;;5.00;;
75739;SDS011;64357;51.344;6.550;2023-06-10T09:51:59;9.10;;;5.25;;
75739;SDS011;64357;51.344;6.550;2023-06-10T09:54:24;9.32;;;6.50;;
75739;SDS011;64357;51.344;6.550;2023-06-10T09:57:06;8.77;;;5.22;;
75739;SDS011;64357;51.344;6.550;2023-06-10T09:59:39;8.15;;;5.22;;
75739;SDS011;64357;51.344;6.550;2023-06-10T10:02:13;10.70;;;6.10;;
75739;SDS011;64357;51.344;6.550;2023-06-10T10:04:44;8.20;;;5.72;;
75739;SDS011;64357;51.344;6.550;2023-06-10T10:07:23;8.55;;;5.15;;
75739;SDS011;64357;51.344;6.550;2023-06-10T10:10:46;9.60;;;5.68;;
75739;SDS011;64357;51.344;6.550;2023-06-10T10:13:27;8.80;;;5.43;;
75739;SDS011;64357;51.344;6.550;2023-06-10T10:16:20;9.70;;;7.05;;
75739;SDS011;64357;51.344;6.550;2023-06-10T10:18:57;10.18;;;5.43;;
75739;SDS011;64357;51.344;6.550;2023-06-10T10:21:27;8.23;;;4.90;;
75739;SDS011;64357;51.344;6.550;2023-06-10T10:24:05;9.90;;;6.00;;
75739;SDS011;64357;51.344;6.550;2023-06-10T10:26:37;11.25;;;5.88;;
75739;SDS011;64357;51.344;6.550;2023-06-10T10:32:01;8.68;;;5.20;;
75739;SDS011;64357;51.344;6.550;2023-06-10T10:37:12;9.43;;;5.72;;
75739;SDS011;64357;51.344;6.550;2023-06-10T10:39:38;8.90;;;5.97;;
75739;SDS011;64357;51.344;6.550;2023-06-10T10:42:14;10.23;;;6.10;;
75739;SDS011;64357;51.344;6.550;2023-06-10T10:44:45;9.50;;;5.30;;
75739;SDS011;64357;51.344;6.550;2023-06-10T10:50:33;10.82;;;6.47;;
75739;SDS011;64357;51.344;6.550;2023-06-10T10:53:00;8.60;;;5.93;;
75739;SDS011;64357;51.344;6.550;2023-06-10T10:55:27;9.55;;;6.03;;
75739;SDS011;64357;51.344;6.550;2023-06-10T10:58:04;7.55;;;5.60;;
75739;SDS011;64357;51.344;6.550;2023-06-10T11:00:34;11.65;;;5.85;;
75739;SDS011;64357;51.344;6.550;2023-06-10T11:05:47;8.63;;;5.40;;
75739;SDS011;64357;51.344;6.550;2023-06-10T11:10:59;9.25;;;5.78;;
75739;SDS011;64357;51.344;6.550;2023-06-10T11:13:25;8.45;;;5.45;;
75739;SDS011;64357;51.344;6.550;2023-06-10T11:15:52;7.95;;;5.30;;
75739;SDS011;64357;51.344;6.550;2023-06-10T11:20:53;9.65;;;5.35;;
75739;SDS011;64357;51.344;6.550;2023-06-10T11:31:27;10.15;;;5.60;;
75739;SDS011;64357;51.344;6.550;2023-06-10T11:33:58;8.45;;;5.50;;
75739;SDS011;64357;51.344;6.550;2023-06-10T11:36:26;8.80;;;5.22;;
75739;SDS011;64357;51.344;6.550;2023-06-10T11:38:56;8.80;;;5.57;;
75739;SDS011;64357;51.344;6.550;2023-06-10T11:41:26;10.15;;;5.57;;
75739;SDS011;64357;51.344;6.550;2023-06-10T11:43:52;11.75;;;5.38;;
75739;SDS011;64357;51.344;6.550;2023-06-10T11:46:20;10.15;;;5.82;;
75739;SDS011;64357;51.344;6.550;2023-06-10T11:48:51;7.72;;;5.22;;
75739;SDS011;64357;51.344;6.550;2023-06-10T11:51:18;9.68;;;5.47;;
75739;SDS011;64357;51.344;6.550;2023-06-10T11:53:47;9.13;;;5.97;;
75739;SDS011;64357;51.344;6.550;2023-06-10T11:56:27;7.75;;;4.50;;
75739;SDS011;64357;51.344;6.550;2023-06-10T11:58:57;8.43;;;5.18;;
75739;SDS011;64357;51.344;6.550;2023-06-10T12:01:29;9.45;;;5.35;;
75739;SDS011;64357;51.344;6.550;2023-06-10T12:04:02;8.20;;;5.28;;
75739;SDS011;64357;51.344;6.550;2023-06-10T12:09:18;8.00;;;4.63;;
75739;SDS011;64357;51.344;6.550;2023-06-10T12:11:57;8.13;;;4.80;;
75739;SDS011;64357;51.344;6.550;2023-06-10T12:19:55;8.77;;;5.03;;
75739;SDS011;64357;51.344;6.550;2023-06-10T12:22:20;9.10;;;5.32;;
75739;SDS011;64357;51.344;6.550;2023-06-10T12:24:56;8.73;;;4.93;;
75739;SDS011;64357;51.344;6.550;2023-06-10T12:27:26;8.60;;;5.97;;
75739;SDS011;64357;51.344;6.550;2023-06-10T12:29:54;9.95;;;5.47;;
75739;SDS011;64357;51.344;6.550;2023-06-10T12:32:20;10.65;;;5.35;;
75739;SDS011;64357;51.344;6.550;2023-06-10T12:34:50;8.77;;;5.45;;
75739;SDS011;64357;51.344;6.550;2023-06-10T12:37:26;8.95;;;5.35;;
75739;SDS011;64357;51.344;6.550;2023-06-10T12:39:56;10.93;;;5.45;;
75739;SDS011;64357;51.344;6.550;2023-06-10T12:42:24;8.23;;;5.07;;
75739;SDS011;64357;51.344;6.550;2023-06-10T12:44:55;9.50;;;4.72;;
75739;SDS011;64357;51.344;6.550;2023-06-10T12:47:28;7.38;;;4.72;;
75739;SDS011;64357;51.344;6.550;2023-06-10T12:50:00;8.13;;;4.90;;
75739;SDS011;64357;51.344;6.550;2023-06-10T12:52:26;9.23;;;5.00;;
75739;SDS011;64357;51.344;6.550;2023-06-10T12:54:52;8.32;;;4.78;;
75739;SDS011;64357;51.344;6.550;2023-06-10T12:57:22;8.88;;;4.68;;
75739;SDS011;64357;51.344;6.550;2023-06-10T12:59:50;9.93;;;4.75;;
75739;SDS011;64357;51.344;6.550;2023-06-10T13:02:22;9.60;;;5.45;;
75739;SDS011;64357;51.344;6.550;2023-06-10T13:04:49;10.30;;;4.97;;
75739;SDS011;64357;51.344;6.550;2023-06-10T13:07:17;8.18;;;5.32;;
75739;SDS011;64357;51.344;6.550;2023-06-10T13:09:43;8.32;;;5.20;;
75739;SDS011;64357;51.344;6.550;2023-06-10T13:12:09;8.40;;;5.13;;
75739;SDS011;64357;51.344;6.550;2023-06-10T13:14:37;9.55;;;5.95;;
75739;SDS011;64357;51.344;6.550;2023-06-10T13:17:05;7.85;;;5.10;;
75739;SDS011;64357;51.344;6.550;2023-06-10T13:19:33;9.27;;;5.22;;
75739;SDS011;64357;51.344;6.550;2023-06-10T13:21:59;11.00;;;6.00;;
75739;SDS011;64357;51.344;6.550;2023-06-10T13:24:24;7.38;;;4.90;;
75739;SDS011;64357;51.344;6.550;2023-06-10T13:26:52;9.43;;;5.03;;
75739;SDS011;64357;51.344;6.550;2023-06-10T13:29:19;9.13;;;5.55;;
75739;SDS011;64357;51.344;6.550;2023-06-10T13:31:45;8.57;;;4.60;;
75739;SDS011;64357;51.344;6.550;2023-06-10T13:34:10;8.20;;;4.70;;
75739;SDS011;64357;51.344;6.550;2023-06-10T13:36:36;9.05;;;4.97;;
75739;SDS011;64357;51.344;6.550;2023-06-10T13:39:07;8.02;;;4.88;;
75739;SDS011;64357;51.344;6.550;2023-06-10T13:41:36;8.15;;;4.93;;
75739;SDS011;64357;51.344;6.550;2023-06-10T13:44:02;8.60;;;4.78;;
75739;SDS011;64357;51.344;6.550;2023-06-10T13:46:27;7.10;;;4.80;;
75739;SDS011;64357;51.344;6.550;2023-06-10T13:48:52;8.93;;;5.30;;
75739;SDS011;64357;51.344;6.550;2023-06-10T13:51:18;7.67;;;5.00;;
75739;SDS011;64357;51.344;6.550;2023-06-10T13:53:43;9.20;;;4.90;;
75739;SDS011;64357;51.344;6.550;2023-06-10T13:56:11;7.97;;;5.07;;
75739;SDS011;64357;51.344;6.550;2023-06-10T13:58:36;8.60;;;5.47;;
75739;SDS011;64357;51.344;6.550;2023-06-10T14:01:04;9.68;;;5.28;;
75739;SDS011;64357;51.344;6.550;2023-06-10T14:03:32;7.50;;;5.05;;
75739;SDS011;64357;51.344;6.550;2023-06-10T14:05:58;8.33;;;4.60;;
75739;SDS011;64357;51.344;6.550;2023-06-10T14:08:23;7.28;;;5.22;;
75739;SDS011;64357;51.344;6.550;2023-06-10T14:10:49;7.80;;;4.60;;
75739;SDS011;64357;51.344;6.550;2023-06-10T14:13:17;8.20;;;5.35;;
75739;SDS011;64357;51.344;6.550;2023-06-10T14:15:43;9.18;;;5.20;;
75739;SDS011;64357;51.344;6.550;2023-06-10T14:18:11;7.70;;;5.18;;
75739;SDS011;64357;51.344;6.550;2023-06-10T14:20:37;8.70;;;4.72;;
75739;SDS011;64357;51.344;6.550;2023-06-10T14:23:02;9.52;;;5.07;;
75739;SDS011;64357;51.344;6.550;2023-06-10T14:25:27;9.18;;;5.43;;
75739;SDS011;64357;51.344;6.550;2023-06-10T14:27:53;7.97;;;4.70;;
75739;SDS011;64357;51.344;6.550;2023-06-10T14:30:18;9.32;;;5.35;;
75739;SDS011;64357;51.344;6.550;2023-06-10T14:32:44;8.50;;;4.80;;
75739;SDS011;64357;51.344;6.550;2023-06-10T14:35:09;7.30;;;4.72;;
75739;SDS011;64357;51.344;6.550;2023-06-10T14:37:38;9.00;;;5.82;;
75739;SDS011;64357;51.344;6.550;2023-06-10T14:40:07;8.27;;;5.50;;
75739;SDS011;64357;51.344;6.550;2023-06-10T14:42:45;7.80;;;5.20;;
75739;SDS011;64357;51.344;6.550;2023-06-10T14:45:14;11.00;;;4.88;;
75739;SDS011;64357;51.344;6.550;2023-06-10T14:48:02;9.50;;;5.25;;
75739;SDS011;64357;51.344;6.550;2023-06-10T14:50:37;8.27;;;5.03;;
75739;SDS011;64357;51.344;6.550;2023-06-10T14:53:10;8.93;;;5.63;;
75739;SDS011;64357;51.344;6.550;2023-06-10T14:55:38;8.85;;;5.32;;
75739;SDS011;64357;51.344;6.550;2023-06-10T14:58:17;8.27;;;4.95;;
75739;SDS011;64357;51.344;6.550;2023-06-10T15:00:43;8.63;;;4.88;;
75739;SDS011;64357;51.344;6.550;2023-06-10T15:03:08;8.57;;;5.30;;
75739;SDS011;64357;51.344;6.550;2023-06-10T15:05:34;7.80;;;5.18;;
75739;SDS011;64357;51.344;6.550;2023-06-10T15:08:00;8.85;;;5.43;;
75739;SDS011;64357;51.344;6.550;2023-06-10T15:10:26;7.97;;;4.95;;
75739;SDS011;64357;51.344;6.550;2023-06-10T15:12:53;9.83;;;5.10;;
75739;SDS011;64357;51.344;6.550;2023-06-10T15:15:24;9.15;;;5.20;;
75739;SDS011;64357;51.344;6.550;2023-06-10T15:17:53;8.45;;;5.07;;
75739;SDS011;64357;51.344;6.550;2023-06-10T15:20:19;10.07;;;5.00;;
75739;SDS011;64357;51.344;6.550;2023-06-10T15:22:47;8.85;;;4.82;;
75739;SDS011;64357;51.344;6.550;2023-06-10T15:25:12;10.07;;;5.38;;
75739;SDS011;64357;51.344;6.550;2023-06-10T15:27:38;9.05;;;4.95;;
75739;SDS011;64357;51.344;6.550;2023-06-10T15:30:07;19.73;;;5.60;;
75739;SDS011;64357;51.344;6.550;2023-06-10T15:32:33;11.27;;;5.50;;
75739;SDS011;64357;51.344;6.550;2023-06-10T15:34:58;7.77;;;5.00;;